sensor_id;sensor_type;location;lat;lon;timestamp;P1;durP1;ratioP1;P2;durP2;ratioP2
17091;SDS011;8661;45.700;4.880;2022-11-20T00:02:20;3.83;;;3.20;;
17091;SDS011;8661;45.700;4.880;2022-11-20T00:04:47;5.70;;;3.90;;
17091;SDS011;8661;45.700;4.880;2022-11-20T00:07:14;6.03;;;3.93;;
17091;SDS011;8661;45.700;4.880;2022-11-20T00:09:41;5.23;;;3.90;;
17091;SDS011;8661;45.700;4.880;2022-11-20T00:12:08;5.27;;;3.70;;
17091;SDS011;8661;45.700;4.880;2022-11-20T00:14:35;5.10;;;3.60;;
17091;SDS011;8661;45.700;4.880;2022-11-20T00:17:02;4.77;;;3.67;;
17091;SDS011;8661;45.700;4.880;2022-11-20T00:19:31;5.73;;;4.10;;
17091;SDS011;8661;45.700;4.880;2022-11-20T00:21:58;4.90;;;3.60;;
17091;SDS011;8661;45.700;4.880;2022-11-20T00:24:24;9.70;;;4.67;;
17091;SDS011;8661;45.700;4.880;2022-11-20T00:26:51;5.60;;;3.97;;
17091;SDS011;8661;45.700;4.880;2022-11-20T00:29:18;7.30;;;4.47;;
17091;SDS011;8661;45.700;4.880;2022-11-20T00:31:45;9.53;;;4.47;;
17091;SDS011;8661;45.700;4.880;2022-11-20T00:34:13;7.37;;;4.13;;
17091;SDS011;8661;45.700;4.880;2022-11-20T00:36:41;9.60;;;4.70;;
17091;SDS011;8661;45.700;4.880;2022-11-20T00:39:08;10.30;;;4.70;;
17091;SDS011;8661;45.700;4.880;2022-11-20T00:41:35;7.83;;;4.73;;
17091;SDS011;8661;45.700;4.880;2022-11-20T00:44:02;6.13;;;4.50;;
17091;SDS011;8661;45.700;4.880;2022-11-20T00:46:29;11.03;;;5.70;;
17091;SDS011;8661;45.700;4.880;2022-11-20T00:48:56;11.00;;;5.60;;
17091;SDS011;8661;45.700;4.880;2022-11-20T00:51:24;7.20;;;4.83;;
17091;SDS011;8661;45.700;4.880;2022-11-20T00:53:55;7.10;;;4.80;;
17091;SDS011;8661;45.700;4.880;2022-11-20T00:56:23;11.73;;;5.00;;
17091;SDS011;8661;45.700;4.880;2022-11-20T00:58:50;10.73;;;5.13;;
17091;SDS011;8661;45.700;4.880;2022-11-20T01:01:18;8.70;;;4.90;;
17091;SDS011;8661;45.700;4.880;2022-11-20T01:03:47;7.20;;;4.73;;
17091;SDS011;8661;45.700;4.880;2022-11-20T01:06:17;8.60;;;4.93;;
17091;SDS011;8661;45.700;4.880;2022-11-20T01:08:45;10.07;;;5.07;;
17091;SDS011;8661;45.700;4.880;2022-11-20T01:11:15;7.80;;;4.77;;
17091;SDS011;8661;45.700;4.880;2022-11-20T01:13:44;10.23;;;5.40;;
17091;SDS011;8661;45.700;4.880;2022-11-20T01:16:13;10.70;;;5.47;;
17091;SDS011;8661;45.700;4.880;2022-11-20T01:18:42;10.63;;;5.90;;
17091;SDS011;8661;45.700;4.880;2022-11-20T01:21:10;10.23;;;5.07;;
17091;SDS011;8661;45.700;4.880;2022-11-20T01:23:38;12.33;;;5.30;;
17091;SDS011;8661;45.700;4.880;2022-11-20T01:26:08;14.67;;;7.03;;
17091;SDS011;8661;45.700;4.880;2022-11-20T01:28:38;20.10;;;10.27;;
17091;SDS011;8661;45.700;4.880;2022-11-20T01:31:10;15.93;;;8.53;;
17091;SDS011;8661;45.700;4.880;2022-11-20T01:33:39;13.07;;;8.30;;
17091;SDS011;8661;45.700;4.880;2022-11-20T01:36:06;19.50;;;9.10;;
17091;SDS011;8661;45.700;4.880;2022-11-20T01:38:34;24.80;;;12.87;;
17091;SDS011;8661;45.700;4.880;2022-11-20T01:41:02;22.60;;;13.37;;
17091;SDS011;8661;45.700;4.880;2022-11-20T01:43:29;22.80;;;11.63;;
17091;SDS011;8661;45.700;4.880;2022-11-20T01:46:08;19.60;;;11.40;;
17091;SDS011;8661;45.700;4.880;2022-11-20T01:48:42;24.20;;;13.17;;
17091;SDS011;8661;45.700;4.880;2022-11-20T01:51:17;31.97;;;16.60;;
17091;SDS011;8661;45.700;4.880;2022-11-20T01:53:49;24.57;;;12.97;;
17091;SDS011;8661;45.700;4.880;2022-11-20T01:56:18;17.90;;;11.17;;
17091;SDS011;8661;45.700;4.880;2022-11-20T01:58:46;13.03;;;7.50;;
17091;SDS011;8661;45.700;4.880;2022-11-20T02:01:17;12.87;;;7.80;;
17091;SDS011;8661;45.700;4.880;2022-11-20T02:03:45;15.80;;;8.30;;
17091;SDS011;8661;45.700;4.880;2022-11-20T02:06:15;20.33;;;10.83;;
17091;SDS011;8661;45.700;4.880;2022-11-20T02:08:45;18.83;;;10.10;;
17091;SDS011;8661;45.700;4.880;2022-11-20T02:11:12;17.70;;;10.87;;
17091;SDS011;8661;45.700;4.880;2022-11-20T02:13:39;19.13;;;10.90;;
17091;SDS011;8661;45.700;4.880;2022-11-20T02:16:10;23.63;;;11.67;;
17091;SDS011;8661;45.700;4.880;2022-11-20T02:18:41;19.43;;;11.43;;
17091;SDS011;8661;45.700;4.880;2022-11-20T02:21:13;23.60;;;12.13;;
17091;SDS011;8661;45.700;4.880;2022-11-20T02:23:57;18.03;;;10.47;;
17091;SDS011;8661;45.700;4.880;2022-11-20T02:26:30;18.63;;;9.83;;
17091;SDS011;8661;45.700;4.880;2022-11-20T02:29:00;22.77;;;12.73;;
17091;SDS011;8661;45.700;4.880;2022-11-20T02:31:29;22.50;;;12.20;;
17091;SDS011;8661;45.700;4.880;2022-11-20T02:34:00;9.67;;;6.90;;
17091;SDS011;8661;45.700;4.880;2022-11-20T02:36:27;12.97;;;7.53;;
17091;SDS011;8661;45.700;4.880;2022-11-20T02:38:58;14.50;;;8.53;;
17091;SDS011;8661;45.700;4.880;2022-11-20T02:41:30;13.67;;;7.73;;
17091;SDS011;8661;45.700;4.880;2022-11-20T02:43:58;18.93;;;10.53;;
17091;SDS011;8661;45.700;4.880;2022-11-20T02:46:25;22.33;;;11.73;;
17091;SDS011;8661;45.700;4.880;2022-11-20T02:48:52;18.10;;;10.50;;
17091;SDS011;8661;45.700;4.880;2022-11-20T02:51:19;17.67;;;10.07;;
17091;SDS011;8661;45.700;4.880;2022-11-20T02:53:46;23.33;;;11.73;;
17091;SDS011;8661;45.700;4.880;2022-11-20T02:56:14;17.53;;;10.00;;
17091;SDS011;8661;45.700;4.880;2022-11-20T02:58:42;16.03;;;8.90;;
17091;SDS011;8661;45.700;4.880;2022-11-20T03:01:09;13.83;;;8.53;;
17091;SDS011;8661;45.700;4.880;2022-11-20T03:03:36;16.53;;;8.80;;
17091;SDS011;8661;45.700;4.880;2022-11-20T03:06:03;14.67;;;8.57;;
17091;SDS011;8661;45.700;4.880;2022-11-20T03:08:30;11.03;;;6.50;;
17091;SDS011;8661;45.700;4.880;2022-11-20T03:11:01;10.77;;;6.40;;
17091;SDS011;8661;45.700;4.880;2022-11-20T03:13:31;11.63;;;6.33;;
17091;SDS011;8661;45.700;4.880;2022-11-20T03:15:58;10.07;;;6.73;;
17091;SDS011;8661;45.700;4.880;2022-11-20T03:18:30;11.53;;;7.30;;
17091;SDS011;8661;45.700;4.880;2022-11-20T03:20:57;15.30;;;8.87;;
17091;SDS011;8661;45.700;4.880;2022-11-20T03:23:24;15.87;;;8.60;;
17091;SDS011;8661;45.700;4.880;2022-11-20T03:25:52;22.57;;;10.33;;
17091;SDS011;8661;45.700;4.880;2022-11-20T03:28:19;14.20;;;8.90;;
17091;SDS011;8661;45.700;4.880;2022-11-20T03:30:47;14.03;;;9.33;;
17091;SDS011;8661;45.700;4.880;2022-11-20T03:33:14;15.70;;;9.83;;
17091;SDS011;8661;45.700;4.880;2022-11-20T03:35:41;19.50;;;9.67;;
17091;SDS011;8661;45.700;4.880;2022-11-20T03:38:08;16.93;;;9.67;;
17091;SDS011;8661;45.700;4.880;2022-11-20T03:40:35;12.43;;;8.73;;
17091;SDS011;8661;45.700;4.880;2022-11-20T03:43:02;14.37;;;9.43;;
17091;SDS011;8661;45.700;4.880;2022-11-20T03:45:29;16.50;;;9.00;;
17091;SDS011;8661;45.700;4.880;2022-11-20T03:47:58;15.97;;;8.40;;
17091;SDS011;8661;45.700;4.880;2022-11-20T03:50:25;13.53;;;8.27;;
17091;SDS011;8661;45.700;4.880;2022-11-20T03:52:52;13.90;;;8.17;;
17091;SDS011;8661;45.700;4.880;2022-11-20T03:55:18;13.43;;;7.63;;
17091;SDS011;8661;45.700;4.880;2022-11-20T03:57:45;16.37;;;9.00;;
17091;SDS011;8661;45.700;4.880;2022-11-20T04:00:13;15.07;;;8.50;;
17091;SDS011;8661;45.700;4.880;2022-11-20T04:02:40;16.63;;;9.37;;
17091;SDS011;8661;45.700;4.880;2022-11-20T04:05:09;13.87;;;8.07;;
17091;SDS011;8661;45.700;4.880;2022-11-20T04:07:39;16.60;;;7.90;;
17091;SDS011;8661;45.700;4.880;2022-11-20T04:10:06;12.13;;;7.63;;
17091;SDS011;8661;45.700;4.880;2022-11-20T04:12:33;11.53;;;7.37;;
17091;SDS011;8661;45.700;4.880;2022-11-20T04:15:00;11.03;;;7.87;;
17091;SDS011;8661;45.700;4.880;2022-11-20T04:17:28;16.43;;;8.93;;
17091;SDS011;8661;45.700;4.880;2022-11-20T04:19:55;28.50;;;12.33;;
17091;SDS011;8661;45.700;4.880;2022-11-20T04:22:23;27.77;;;12.13;;
17091;SDS011;8661;45.700;4.880;2022-11-20T04:24:50;14.10;;;7.97;;
17091;SDS011;8661;45.700;4.880;2022-11-20T04:27:17;13.40;;;8.10;;
17091;SDS011;8661;45.700;4.880;2022-11-20T04:29:44;13.37;;;7.70;;
17091;SDS011;8661;45.700;4.880;2022-11-20T04:32:11;7.90;;;5.90;;
17091;SDS011;8661;45.700;4.880;2022-11-20T04:34:38;9.23;;;6.00;;
17091;SDS011;8661;45.700;4.880;2022-11-20T04:37:05;12.17;;;6.90;;
17091;SDS011;8661;45.700;4.880;2022-11-20T04:39:33;9.33;;;6.17;;
17091;SDS011;8661;45.700;4.880;2022-11-20T04:42:00;9.37;;;6.10;;
17091;SDS011;8661;45.700;4.880;2022-11-20T04:44:44;12.80;;;6.87;;
17091;SDS011;8661;45.700;4.880;2022-11-20T04:47:11;9.80;;;6.63;;
17091;SDS011;8661;45.700;4.880;2022-11-20T04:49:38;12.57;;;7.47;;
17091;SDS011;8661;45.700;4.880;2022-11-20T04:52:05;40.10;;;12.23;;
17091;SDS011;8661;45.700;4.880;2022-11-20T04:54:34;26.13;;;9.70;;
17091;SDS011;8661;45.700;4.880;2022-11-20T04:57:01;40.20;;;13.37;;
17091;SDS011;8661;45.700;4.880;2022-11-20T04:59:28;12.80;;;7.33;;
17091;SDS011;8661;45.700;4.880;2022-11-20T05:01:55;13.77;;;7.07;;
17091;SDS011;8661;45.700;4.880;2022-11-20T05:04:22;12.57;;;6.77;;
17091;SDS011;8661;45.700;4.880;2022-11-20T05:06:49;16.27;;;6.90;;
17091;SDS011;8661;45.700;4.880;2022-11-20T05:09:16;22.47;;;9.73;;
17091;SDS011;8661;45.700;4.880;2022-11-20T05:11:44;16.63;;;7.60;;
17091;SDS011;8661;45.700;4.880;2022-11-20T05:14:11;10.70;;;6.30;;
17091;SDS011;8661;45.700;4.880;2022-11-20T05:16:38;18.60;;;9.13;;
17091;SDS011;8661;45.700;4.880;2022-11-20T05:19:05;16.00;;;8.27;;
17091;SDS011;8661;45.700;4.880;2022-11-20T05:21:32;15.93;;;7.13;;
17091;SDS011;8661;45.700;4.880;2022-11-20T05:23:59;13.37;;;7.13;;
17091;SDS011;8661;45.700;4.880;2022-11-20T05:26:29;17.13;;;7.60;;
17091;SDS011;8661;45.700;4.880;2022-11-20T05:28:58;13.97;;;7.10;;
17091;SDS011;8661;45.700;4.880;2022-11-20T05:31:25;11.63;;;6.03;;
17091;SDS011;8661;45.700;4.880;2022-11-20T05:33:52;8.83;;;5.97;;
17091;SDS011;8661;45.700;4.880;2022-11-20T05:36:19;10.23;;;6.60;;
17091;SDS011;8661;45.700;4.880;2022-11-20T05:38:46;14.20;;;7.07;;
17091;SDS011;8661;45.700;4.880;2022-11-20T05:41:13;12.90;;;6.60;;
17091;SDS011;8661;45.700;4.880;2022-11-20T05:43:43;10.27;;;7.23;;
17091;SDS011;8661;45.700;4.880;2022-11-20T05:46:13;9.80;;;6.80;;
17091;SDS011;8661;45.700;4.880;2022-11-20T05:48:42;10.50;;;6.40;;
17091;SDS011;8661;45.700;4.880;2022-11-20T05:51:10;15.17;;;7.57;;
17091;SDS011;8661;45.700;4.880;2022-11-20T05:53:38;12.50;;;7.70;;
17091;SDS011;8661;45.700;4.880;2022-11-20T05:56:06;11.30;;;8.00;;
17091;SDS011;8661;45.700;4.880;2022-11-20T05:58:36;11.40;;;7.53;;
17091;SDS011;8661;45.700;4.880;2022-11-20T06:01:07;10.20;;;7.80;;
17091;SDS011;8661;45.700;4.880;2022-11-20T06:03:37;17.00;;;7.87;;
17091;SDS011;8661;45.700;4.880;2022-11-20T06:06:05;10.30;;;7.93;;
17091;SDS011;8661;45.700;4.880;2022-11-20T06:08:33;13.70;;;7.63;;
17091;SDS011;8661;45.700;4.880;2022-11-20T06:11:02;17.63;;;9.50;;
17091;SDS011;8661;45.700;4.880;2022-11-20T06:13:30;12.70;;;8.77;;
17091;SDS011;8661;45.700;4.880;2022-11-20T06:15:58;16.50;;;9.10;;
17091;SDS011;8661;45.700;4.880;2022-11-20T06:18:25;11.50;;;7.87;;
17091;SDS011;8661;45.700;4.880;2022-11-20T06:21:02;12.30;;;7.87;;
17091;SDS011;8661;45.700;4.880;2022-11-20T06:23:32;10.33;;;7.83;;
17091;SDS011;8661;45.700;4.880;2022-11-20T06:26:01;12.47;;;7.70;;
17091;SDS011;8661;45.700;4.880;2022-11-20T06:28:29;16.50;;;7.70;;
17091;SDS011;8661;45.700;4.880;2022-11-20T06:30:56;12.83;;;7.90;;
17091;SDS011;8661;45.700;4.880;2022-11-20T06:33:23;11.57;;;7.13;;
17091;SDS011;8661;45.700;4.880;2022-11-20T06:35:55;12.17;;;7.23;;
17091;SDS011;8661;45.700;4.880;2022-11-20T06:38:24;11.77;;;6.93;;
17091;SDS011;8661;45.700;4.880;2022-11-20T06:40:52;13.73;;;7.57;;
17091;SDS011;8661;45.700;4.880;2022-11-20T06:43:19;10.97;;;7.53;;
17091;SDS011;8661;45.700;4.880;2022-11-20T06:45:46;11.13;;;7.40;;
17091;SDS011;8661;45.700;4.880;2022-11-20T06:48:18;11.33;;;6.87;;
17091;SDS011;8661;45.700;4.880;2022-11-20T06:50:45;10.67;;;7.27;;
17091;SDS011;8661;45.700;4.880;2022-11-20T06:53:12;12.57;;;7.67;;
17091;SDS011;8661;45.700;4.880;2022-11-20T06:55:43;11.57;;;7.23;;
17091;SDS011;8661;45.700;4.880;2022-11-20T06:58:11;12.97;;;6.50;;
17091;SDS011;8661;45.700;4.880;2022-11-20T07:00:39;9.67;;;7.07;;
17091;SDS011;8661;45.700;4.880;2022-11-20T07:03:06;9.60;;;6.97;;
17091;SDS011;8661;45.700;4.880;2022-11-20T07:05:35;9.80;;;5.90;;
17091;SDS011;8661;45.700;4.880;2022-11-20T07:08:02;9.40;;;6.70;;
17091;SDS011;8661;45.700;4.880;2022-11-20T07:10:29;10.13;;;6.47;;
17091;SDS011;8661;45.700;4.880;2022-11-20T07:12:58;16.17;;;6.47;;
17091;SDS011;8661;45.700;4.880;2022-11-20T07:15:25;9.40;;;6.13;;
17091;SDS011;8661;45.700;4.880;2022-11-20T07:17:53;11.13;;;7.23;;
17091;SDS011;8661;45.700;4.880;2022-11-20T07:20:20;11.57;;;6.60;;
17091;SDS011;8661;45.700;4.880;2022-11-20T07:22:47;10.87;;;6.90;;
17091;SDS011;8661;45.700;4.880;2022-11-20T07:25:19;9.63;;;5.80;;
17091;SDS011;8661;45.700;4.880;2022-11-20T07:27:46;8.60;;;5.97;;
17091;SDS011;8661;45.700;4.880;2022-11-20T07:30:15;15.93;;;6.67;;
17091;SDS011;8661;45.700;4.880;2022-11-20T07:32:42;11.97;;;6.57;;
17091;SDS011;8661;45.700;4.880;2022-11-20T07:35:12;8.27;;;5.90;;
17091;SDS011;8661;45.700;4.880;2022-11-20T07:37:39;10.60;;;6.47;;
17091;SDS011;8661;45.700;4.880;2022-11-20T07:40:06;11.57;;;6.77;;
17091;SDS011;8661;45.700;4.880;2022-11-20T07:42:33;11.13;;;6.47;;
17091;SDS011;8661;45.700;4.880;2022-11-20T07:45:00;11.57;;;6.13;;
17091;SDS011;8661;45.700;4.880;2022-11-20T07:47:29;10.30;;;6.43;;
17091;SDS011;8661;45.700;4.880;2022-11-20T07:50:01;14.50;;;6.70;;
17091;SDS011;8661;45.700;4.880;2022-11-20T07:52:28;9.13;;;6.27;;
17091;SDS011;8661;45.700;4.880;2022-11-20T07:54:55;8.43;;;6.30;;
17091;SDS011;8661;45.700;4.880;2022-11-20T07:57:22;16.43;;;6.70;;
17091;SDS011;8661;45.700;4.880;2022-11-20T07:59:49;9.90;;;6.47;;
17091;SDS011;8661;45.700;4.880;2022-11-20T08:02:16;8.87;;;6.23;;
17091;SDS011;8661;45.700;4.880;2022-11-20T08:04:45;7.90;;;6.17;;
17091;SDS011;8661;45.700;4.880;2022-11-20T08:07:12;9.70;;;7.07;;
17091;SDS011;8661;45.700;4.880;2022-11-20T08:09:39;11.43;;;7.23;;
17091;SDS011;8661;45.700;4.880;2022-11-20T08:12:06;8.17;;;6.23;;
17091;SDS011;8661;45.700;4.880;2022-11-20T08:14:50;12.47;;;6.57;;
17091;SDS011;8661;45.700;4.880;2022-11-20T08:17:17;10.47;;;6.63;;
17091;SDS011;8661;45.700;4.880;2022-11-20T08:19:46;9.70;;;6.43;;
17091;SDS011;8661;45.700;4.880;2022-11-20T08:22:13;9.50;;;6.00;;
17091;SDS011;8661;45.700;4.880;2022-11-20T08:24:41;10.23;;;6.47;;
17091;SDS011;8661;45.700;4.880;2022-11-20T08:27:08;10.03;;;6.33;;
17091;SDS011;8661;45.700;4.880;2022-11-20T08:29:35;11.63;;;7.10;;
17091;SDS011;8661;45.700;4.880;2022-11-20T08:32:02;12.07;;;7.60;;
17091;SDS011;8661;45.700;4.880;2022-11-20T08:34:29;9.53;;;7.17;;
17091;SDS011;8661;45.700;4.880;2022-11-20T08:36:57;13.67;;;8.43;;
17091;SDS011;8661;45.700;4.880;2022-11-20T08:39:24;11.13;;;8.17;;
17091;SDS011;8661;45.700;4.880;2022-11-20T08:41:51;13.93;;;9.53;;
17091;SDS011;8661;45.700;4.880;2022-11-20T08:44:18;12.67;;;9.57;;
17091;SDS011;8661;45.700;4.880;2022-11-20T08:46:45;12.73;;;9.33;;
17091;SDS011;8661;45.700;4.880;2022-11-20T08:49:12;12.73;;;7.90;;
17091;SDS011;8661;45.700;4.880;2022-11-20T08:51:41;13.17;;;8.77;;
17091;SDS011;8661;45.700;4.880;2022-11-20T08:54:09;11.77;;;8.27;;
17091;SDS011;8661;45.700;4.880;2022-11-20T08:56:39;12.27;;;7.47;;
17091;SDS011;8661;45.700;4.880;2022-11-20T08:59:06;13.57;;;7.87;;
17091;SDS011;8661;45.700;4.880;2022-11-20T09:01:33;11.53;;;6.30;;
17091;SDS011;8661;45.700;4.880;2022-11-20T09:04:00;9.43;;;6.57;;
17091;SDS011;8661;45.700;4.880;2022-11-20T09:06:29;8.30;;;5.70;;
17091;SDS011;8661;45.700;4.880;2022-11-20T09:08:56;11.80;;;3.17;;
17091;SDS011;8661;45.700;4.880;2022-11-20T09:11:25;5.60;;;2.37;;
17091;SDS011;8661;45.700;4.880;2022-11-20T09:13:52;5.00;;;1.97;;
17091;SDS011;8661;45.700;4.880;2022-11-20T09:16:19;3.60;;;1.93;;
17091;SDS011;8661;45.700;4.880;2022-11-20T09:18:46;6.93;;;2.20;;
17091;SDS011;8661;45.700;4.880;2022-11-20T09:21:15;3.97;;;1.77;;
17091;SDS011;8661;45.700;4.880;2022-11-20T09:23:42;5.77;;;2.00;;
17091;SDS011;8661;45.700;4.880;2022-11-20T09:26:10;7.27;;;1.80;;
17091;SDS011;8661;45.700;4.880;2022-11-20T09:28:40;4.70;;;1.80;;
17091;SDS011;8661;45.700;4.880;2022-11-20T09:31:07;6.00;;;1.90;;
17091;SDS011;8661;45.700;4.880;2022-11-20T09:33:36;4.20;;;1.83;;
17091;SDS011;8661;45.700;4.880;2022-11-20T09:36:03;11.13;;;2.30;;
17091;SDS011;8661;45.700;4.880;2022-11-20T09:38:30;6.63;;;1.83;;
17091;SDS011;8661;45.700;4.880;2022-11-20T09:40:58;4.80;;;1.77;;
17091;SDS011;8661;45.700;4.880;2022-11-20T09:43:32;8.63;;;1.90;;
17091;SDS011;8661;45.700;4.880;2022-11-20T09:46:14;4.67;;;2.00;;
17091;SDS011;8661;45.700;4.880;2022-11-20T09:48:55;4.13;;;1.70;;
17091;SDS011;8661;45.700;4.880;2022-11-20T09:51:35;3.53;;;1.40;;
17091;SDS011;8661;45.700;4.880;2022-11-20T09:54:14;6.57;;;1.67;;
17091;SDS011;8661;45.700;4.880;2022-11-20T09:56:44;3.30;;;1.27;;
17091;SDS011;8661;45.700;4.880;2022-11-20T09:59:18;3.27;;;1.43;;
17091;SDS011;8661;45.700;4.880;2022-11-20T10:01:57;11.03;;;6.57;;
17091;SDS011;8661;45.700;4.880;2022-11-20T10:04:26;9.33;;;5.13;;
17091;SDS011;8661;45.700;4.880;2022-11-20T10:07:00;4.70;;;1.77;;
17091;SDS011;8661;45.700;4.880;2022-11-20T10:09:31;3.63;;;1.67;;
17091;SDS011;8661;45.700;4.880;2022-11-20T10:12:04;3.20;;;1.50;;
17091;SDS011;8661;45.700;4.880;2022-11-20T10:14:41;4.13;;;1.30;;
17091;SDS011;8661;45.700;4.880;2022-11-20T10:17:24;4.27;;;1.60;;
17091;SDS011;8661;45.700;4.880;2022-11-20T10:20:09;3.13;;;1.40;;
17091;SDS011;8661;45.700;4.880;2022-11-20T10:22:46;6.10;;;1.60;;
17091;SDS011;8661;45.700;4.880;2022-11-20T10:25:32;5.97;;;1.67;;
17091;SDS011;8661;45.700;4.880;2022-11-20T10:28:11;3.07;;;1.50;;
17091;SDS011;8661;45.700;4.880;2022-11-20T10:30:51;4.00;;;1.60;;
17091;SDS011;8661;45.700;4.880;2022-11-20T10:33:27;4.43;;;1.80;;
17091;SDS011;8661;45.700;4.880;2022-11-20T10:36:00;6.67;;;1.87;;
17091;SDS011;8661;45.700;4.880;2022-11-20T10:38:36;6.70;;;1.70;;
17091;SDS011;8661;45.700;4.880;2022-11-20T10:41:06;3.20;;;1.70;;
17091;SDS011;8661;45.700;4.880;2022-11-20T10:43:52;3.33;;;1.40;;
17091;SDS011;8661;45.700;4.880;2022-11-20T10:46:33;3.87;;;1.70;;
17091;SDS011;8661;45.700;4.880;2022-11-20T10:49:09;4.10;;;1.50;;
17091;SDS011;8661;45.700;4.880;2022-11-20T10:51:45;4.20;;;1.40;;
17091;SDS011;8661;45.700;4.880;2022-11-20T10:54:26;4.83;;;1.50;;
17091;SDS011;8661;45.700;4.880;2022-11-20T10:57:01;3.07;;;1.30;;
17091;SDS011;8661;45.700;4.880;2022-11-20T10:59:35;3.70;;;1.53;;
17091;SDS011;8661;45.700;4.880;2022-11-20T11:02:17;4.13;;;1.37;;
17091;SDS011;8661;45.700;4.880;2022-11-20T11:04:47;2.77;;;1.00;;
17091;SDS011;8661;45.700;4.880;2022-11-20T11:07:17;3.07;;;1.60;;
17091;SDS011;8661;45.700;4.880;2022-11-20T11:09:49;4.60;;;1.90;;
17091;SDS011;8661;45.700;4.880;2022-11-20T11:12:18;5.60;;;1.90;;
17091;SDS011;8661;45.700;4.880;2022-11-20T11:14:47;4.30;;;2.20;;
17091;SDS011;8661;45.700;4.880;2022-11-20T11:17:20;6.70;;;1.80;;
17091;SDS011;8661;45.700;4.880;2022-11-20T11:20:02;4.40;;;1.90;;
17091;SDS011;8661;45.700;4.880;2022-11-20T11:22:33;2.97;;;1.60;;
17091;SDS011;8661;45.700;4.880;2022-11-20T11:25:08;3.97;;;1.60;;
17091;SDS011;8661;45.700;4.880;2022-11-20T11:27:47;3.67;;;1.30;;
17091;SDS011;8661;45.700;4.880;2022-11-20T11:30:16;8.33;;;1.90;;
17091;SDS011;8661;45.700;4.880;2022-11-20T11:32:44;4.20;;;1.70;;
17091;SDS011;8661;45.700;4.880;2022-11-20T11:35:20;5.73;;;2.00;;
17091;SDS011;8661;45.700;4.880;2022-11-20T11:37:49;3.43;;;1.67;;
17091;SDS011;8661;45.700;4.880;2022-11-20T11:40:19;5.03;;;1.73;;
17091;SDS011;8661;45.700;4.880;2022-11-20T11:42:50;4.43;;;1.70;;
17091;SDS011;8661;45.700;4.880;2022-11-20T11:45:21;5.80;;;1.97;;
17091;SDS011;8661;45.700;4.880;2022-11-20T11:47:47;3.40;;;1.77;;
17091;SDS011;8661;45.700;4.880;2022-11-20T11:50:20;4.83;;;1.73;;
17091;SDS011;8661;45.700;4.880;2022-11-20T11:52:50;3.87;;;1.70;;
17091;SDS011;8661;45.700;4.880;2022-11-20T11:55:35;4.03;;;1.90;;
17091;SDS011;8661;45.700;4.880;2022-11-20T11:58:11;4.07;;;1.57;;
17091;SDS011;8661;45.700;4.880;2022-11-20T12:00:46;4.53;;;1.80;;
17091;SDS011;8661;45.700;4.880;2022-11-20T12:03:21;5.57;;;1.90;;
17091;SDS011;8661;45.700;4.880;2022-11-20T12:05:55;3.10;;;1.80;;
17091;SDS011;8661;45.700;4.880;2022-11-20T12:08:27;4.57;;;2.00;;
17091;SDS011;8661;45.700;4.880;2022-11-20T12:11:06;4.33;;;1.57;;
17091;SDS011;8661;45.700;4.880;2022-11-20T12:13:42;2.20;;;1.43;;
17091;SDS011;8661;45.700;4.880;2022-11-20T12:16:15;4.37;;;1.63;;
17091;SDS011;8661;45.700;4.880;2022-11-20T12:18:45;7.77;;;2.47;;
17091;SDS011;8661;45.700;4.880;2022-11-20T12:21:19;3.37;;;1.50;;
17091;SDS011;8661;45.700;4.880;2022-11-20T12:24:06;3.40;;;1.70;;
17091;SDS011;8661;45.700;4.880;2022-11-20T12:26:58;5.13;;;1.50;;
17091;SDS011;8661;45.700;4.880;2022-11-20T12:29:37;3.20;;;1.80;;
17091;SDS011;8661;45.700;4.880;2022-11-20T12:35:25;3.27;;;1.60;;
17091;SDS011;8661;45.700;4.880;2022-11-20T12:38:12;4.95;;;1.75;;
17091;SDS011;8661;45.700;4.880;2022-11-20T12:41:01;3.90;;;1.63;;
17091;SDS011;8661;45.700;4.880;2022-11-20T12:43:40;2.93;;;1.40;;
17091;SDS011;8661;45.700;4.880;2022-11-20T12:46:33;3.03;;;1.33;;
17091;SDS011;8661;45.700;4.880;2022-11-20T12:49:09;3.07;;;1.27;;
17091;SDS011;8661;45.700;4.880;2022-11-20T12:51:51;5.33;;;1.20;;
17091;SDS011;8661;45.700;4.880;2022-11-20T12:54:35;3.57;;;1.53;;
17091;SDS011;8661;45.700;4.880;2022-11-20T12:57:28;5.40;;;1.63;;
17091;SDS011;8661;45.700;4.880;2022-11-20T13:05:54;4.53;;;1.50;;
17091;SDS011;8661;45.700;4.880;2022-11-20T13:08:27;3.03;;;1.50;;
17091;SDS011;8661;45.700;4.880;2022-11-20T13:11:01;3.23;;;1.57;;
17091;SDS011;8661;45.700;4.880;2022-11-20T13:13:36;4.33;;;1.57;;
17091;SDS011;8661;45.700;4.880;2022-11-20T13:16:10;3.43;;;1.20;;
17091;SDS011;8661;45.700;4.880;2022-11-20T13:18:43;3.50;;;1.50;;
17091;SDS011;8661;45.700;4.880;2022-11-20T13:21:14;3.47;;;1.30;;
17091;SDS011;8661;45.700;4.880;2022-11-20T13:23:41;3.70;;;1.30;;
17091;SDS011;8661;45.700;4.880;2022-11-20T13:26:16;5.77;;;2.10;;
17091;SDS011;8661;45.700;4.880;2022-11-20T13:28:45;3.23;;;1.30;;
17091;SDS011;8661;45.700;4.880;2022-11-20T13:31:25;6.97;;;1.67;;
17091;SDS011;8661;45.700;4.880;2022-11-20T13:33:56;2.83;;;1.13;;
17091;SDS011;8661;45.700;4.880;2022-11-20T13:36:26;2.50;;;1.10;;
17091;SDS011;8661;45.700;4.880;2022-11-20T13:38:55;3.10;;;1.20;;
17091;SDS011;8661;45.700;4.880;2022-11-20T13:41:25;3.53;;;1.27;;
17091;SDS011;8661;45.700;4.880;2022-11-20T13:43:58;2.43;;;1.13;;
17091;SDS011;8661;45.700;4.880;2022-11-20T13:46:35;2.93;;;1.10;;
17091;SDS011;8661;45.700;4.880;2022-11-20T13:49:08;4.13;;;1.17;;
17091;SDS011;8661;45.700;4.880;2022-11-20T13:51:40;3.00;;;1.30;;
17091;SDS011;8661;45.700;4.880;2022-11-20T13:54:25;3.10;;;1.30;;
17091;SDS011;8661;45.700;4.880;2022-11-20T14:00:43;3.43;;;1.10;;
17091;SDS011;8661;45.700;4.880;2022-11-20T14:03:16;5.23;;;1.40;;
17091;SDS011;8661;45.700;4.880;2022-11-20T14:05:49;3.03;;;1.40;;
17091;SDS011;8661;45.700;4.880;2022-11-20T14:08:24;2.23;;;1.10;;
17091;SDS011;8661;45.700;4.880;2022-11-20T14:11:04;2.90;;;1.47;;
17091;SDS011;8661;45.700;4.880;2022-11-20T14:13:32;3.07;;;1.30;;
17091;SDS011;8661;45.700;4.880;2022-11-20T14:16:00;4.73;;;1.77;;
17091;SDS011;8661;45.700;4.880;2022-11-20T14:18:27;4.03;;;1.70;;
17091;SDS011;8661;45.700;4.880;2022-11-20T14:20:54;2.90;;;1.70;;
17091;SDS011;8661;45.700;4.880;2022-11-20T14:23:25;3.40;;;1.60;;
17091;SDS011;8661;45.700;4.880;2022-11-20T14:25:53;3.83;;;1.77;;
17091;SDS011;8661;45.700;4.880;2022-11-20T14:28:24;4.80;;;1.50;;
17091;SDS011;8661;45.700;4.880;2022-11-20T14:30:52;3.07;;;1.80;;
17091;SDS011;8661;45.700;4.880;2022-11-20T14:33:22;7.80;;;2.33;;
17091;SDS011;8661;45.700;4.880;2022-11-20T14:35:51;4.80;;;2.53;;
17091;SDS011;8661;45.700;4.880;2022-11-20T14:38:21;4.03;;;2.33;;
17091;SDS011;8661;45.700;4.880;2022-11-20T14:40:51;3.60;;;1.90;;
17091;SDS011;8661;45.700;4.880;2022-11-20T14:43:20;3.93;;;1.90;;
17091;SDS011;8661;45.700;4.880;2022-11-20T14:45:52;3.43;;;1.73;;
17091;SDS011;8661;45.700;4.880;2022-11-20T14:48:26;3.13;;;1.60;;
17091;SDS011;8661;45.700;4.880;2022-11-20T14:50:56;2.27;;;1.37;;
17091;SDS011;8661;45.700;4.880;2022-11-20T14:53:24;5.47;;;2.20;;
17091;SDS011;8661;45.700;4.880;2022-11-20T14:55:55;3.30;;;1.90;;
17091;SDS011;8661;45.700;4.880;2022-11-20T14:58:24;5.50;;;1.83;;
17091;SDS011;8661;45.700;4.880;2022-11-20T15:00:53;3.30;;;1.80;;
17091;SDS011;8661;45.700;4.880;2022-11-20T15:03:21;6.03;;;2.63;;
17091;SDS011;8661;45.700;4.880;2022-11-20T15:05:50;3.40;;;2.00;;
17091;SDS011;8661;45.700;4.880;2022-11-20T15:08:17;3.47;;;2.00;;
17091;SDS011;8661;45.700;4.880;2022-11-20T15:10:45;3.93;;;1.90;;
17091;SDS011;8661;45.700;4.880;2022-11-20T15:13:14;2.60;;;1.77;;
17091;SDS011;8661;45.700;4.880;2022-11-20T15:15:52;2.50;;;1.50;;
17091;SDS011;8661;45.700;4.880;2022-11-20T15:18:22;3.87;;;2.00;;
17091;SDS011;8661;45.700;4.880;2022-11-20T15:20:53;4.67;;;1.63;;
17091;SDS011;8661;45.700;4.880;2022-11-20T15:23:21;3.80;;;1.53;;
17091;SDS011;8661;45.700;4.880;2022-11-20T15:25:49;4.90;;;1.97;;